sensor_id;sensor_type;location;lat;lon;timestamp;P1;durP1;ratioP1;P2;durP2;ratioP2
53903;SDS011;39812;52.430;16.936;2022-10-31T00:00:58;47.45;;;28.02;;
53903;SDS011;39812;52.430;16.936;2022-10-31T00:03:24;48.65;;;29.20;;
53903;SDS011;39812;52.430;16.936;2022-10-31T00:05:51;46.75;;;28.85;;
53903;SDS011;39812;52.430;16.936;2022-10-31T00:08:17;46.70;;;26.42;;
53903;SDS011;39812;52.430;16.936;2022-10-31T00:10:43;45.17;;;27.02;;
53903;SDS011;39812;52.430;16.936;2022-10-31T00:13:09;47.95;;;27.08;;
53903;SDS011;39812;52.430;16.936;2022-10-31T00:15:37;49.88;;;28.15;;
53903;SDS011;39812;52.430;16.936;2022-10-31T00:18:04;45.30;;;26.92;;
53903;SDS011;39812;52.430;16.936;2022-10-31T00:20:30;46.60;;;26.42;;
53903;SDS011;39812;52.430;16.936;2022-10-31T00:22:59;44.35;;;25.58;;
53903;SDS011;39812;52.430;16.936;2022-10-31T00:25:26;42.58;;;27.05;;
53903;SDS011;39812;52.430;16.936;2022-10-31T00:27:52;46.00;;;26.42;;
53903;SDS011;39812;52.430;16.936;2022-10-31T00:30:17;43.17;;;25.10;;
53903;SDS011;39812;52.430;16.936;2022-10-31T00:32:43;43.92;;;27.35;;
53903;SDS011;39812;52.430;16.936;2022-10-31T00:35:08;43.40;;;28.20;;
53903;SDS011;39812;52.430;16.936;2022-10-31T00:37:34;39.35;;;25.48;;
53903;SDS011;39812;52.430;16.936;2022-10-31T00:39:59;48.40;;;28.60;;
53903;SDS011;39812;52.430;16.936;2022-10-31T00:42:25;55.70;;;31.52;;
53903;SDS011;39812;52.430;16.936;2022-10-31T00:44:51;48.58;;;30.60;;
53903;SDS011;39812;52.430;16.936;2022-10-31T00:47:16;48.30;;;29.95;;
53903;SDS011;39812;52.430;16.936;2022-10-31T00:49:41;50.53;;;31.40;;
53903;SDS011;39812;52.430;16.936;2022-10-31T00:52:07;52.85;;;32.15;;
53903;SDS011;39812;52.430;16.936;2022-10-31T00:54:32;58.70;;;35.03;;
53903;SDS011;39812;52.430;16.936;2022-10-31T00:56:58;64.45;;;35.28;;
53903;SDS011;39812;52.430;16.936;2022-10-31T00:59:23;61.10;;;34.72;;
53903;SDS011;39812;52.430;16.936;2022-10-31T01:01:49;54.78;;;34.10;;
53903;SDS011;39812;52.430;16.936;2022-10-31T01:04:14;53.10;;;32.47;;
53903;SDS011;39812;52.430;16.936;2022-10-31T01:06:40;59.33;;;33.50;;
53903;SDS011;39812;52.430;16.936;2022-10-31T01:09:05;70.97;;;37.22;;
53903;SDS011;39812;52.430;16.936;2022-10-31T01:11:31;69.65;;;38.28;;
53903;SDS011;39812;52.430;16.936;2022-10-31T01:13:56;72.50;;;40.03;;
53903;SDS011;39812;52.430;16.936;2022-10-31T01:16:23;72.90;;;39.78;;
53903;SDS011;39812;52.430;16.936;2022-10-31T01:18:49;74.40;;;40.35;;
53903;SDS011;39812;52.430;16.936;2022-10-31T01:21:17;76.13;;;40.92;;
53903;SDS011;39812;52.430;16.936;2022-10-31T01:23:47;71.78;;;37.83;;
53903;SDS011;39812;52.430;16.936;2022-10-31T01:26:19;65.80;;;35.38;;
53903;SDS011;39812;52.430;16.936;2022-10-31T01:28:47;63.22;;;36.22;;
53903;SDS011;39812;52.430;16.936;2022-10-31T01:31:18;65.32;;;36.30;;
53903;SDS011;39812;52.430;16.936;2022-10-31T01:33:45;73.30;;;38.50;;
53903;SDS011;39812;52.430;16.936;2022-10-31T01:36:15;70.50;;;39.47;;
53903;SDS011;39812;52.430;16.936;2022-10-31T01:38:43;68.97;;;38.60;;
53903;SDS011;39812;52.430;16.936;2022-10-31T01:41:11;75.97;;;42.00;;
53903;SDS011;39812;52.430;16.936;2022-10-31T01:46:24;85.63;;;44.55;;
53903;SDS011;39812;52.430;16.936;2022-10-31T01:48:54;91.28;;;46.65;;
53903;SDS011;39812;52.430;16.936;2022-10-31T01:51:23;91.43;;;47.35;;
53903;SDS011;39812;52.430;16.936;2022-10-31T01:53:52;80.78;;;43.67;;
53903;SDS011;39812;52.430;16.936;2022-10-31T01:56:22;79.30;;;44.22;;
53903;SDS011;39812;52.430;16.936;2022-10-31T01:58:47;83.82;;;42.70;;
53903;SDS011;39812;52.430;16.936;2022-10-31T02:01:13;88.80;;;46.45;;
53903;SDS011;39812;52.430;16.936;2022-10-31T02:03:41;88.13;;;46.58;;
53903;SDS011;39812;52.430;16.936;2022-10-31T02:06:08;77.40;;;41.80;;
53903;SDS011;39812;52.430;16.936;2022-10-31T02:08:41;86.50;;;45.63;;
53903;SDS011;39812;52.430;16.936;2022-10-31T02:11:08;78.43;;;43.30;;
53903;SDS011;39812;52.430;16.936;2022-10-31T02:13:35;86.18;;;45.67;;
53903;SDS011;39812;52.430;16.936;2022-10-31T02:16:01;68.88;;;40.28;;
53903;SDS011;39812;52.430;16.936;2022-10-31T02:18:27;76.30;;;41.35;;
53903;SDS011;39812;52.430;16.936;2022-10-31T02:21:01;73.20;;;42.42;;
53903;SDS011;39812;52.430;16.936;2022-10-31T02:23:39;72.55;;;40.38;;
53903;SDS011;39812;52.430;16.936;2022-10-31T02:26:38;75.45;;;41.08;;
53903;SDS011;39812;52.430;16.936;2022-10-31T02:34:48;76.55;;;41.80;;
53903;SDS011;39812;52.430;16.936;2022-10-31T02:37:33;73.50;;;41.95;;
53903;SDS011;39812;52.430;16.936;2022-10-31T02:40:10;81.95;;;42.67;;
53903;SDS011;39812;52.430;16.936;2022-10-31T02:45:38;83.03;;;44.28;;
53903;SDS011;39812;52.430;16.936;2022-10-31T02:48:18;84.40;;;45.78;;
53903;SDS011;39812;52.430;16.936;2022-10-31T02:50:48;82.30;;;45.97;;
53903;SDS011;39812;52.430;16.936;2022-10-31T02:53:19;87.68;;;47.80;;
53903;SDS011;39812;52.430;16.936;2022-10-31T02:55:47;91.88;;;47.10;;
53903;SDS011;39812;52.430;16.936;2022-10-31T02:58:23;87.15;;;49.10;;
53903;SDS011;39812;52.430;16.936;2022-10-31T03:03:44;92.00;;;47.90;;
53903;SDS011;39812;52.430;16.936;2022-10-31T03:09:58;87.90;;;45.92;;
53903;SDS011;39812;52.430;16.936;2022-10-31T03:14:52;84.05;;;44.08;;
53903;SDS011;39812;52.430;16.936;2022-10-31T03:17:27;87.82;;;46.03;;
53903;SDS011;39812;52.430;16.936;2022-10-31T03:19:59;93.68;;;44.95;;
53903;SDS011;39812;52.430;16.936;2022-10-31T03:22:28;89.15;;;46.58;;
53903;SDS011;39812;52.430;16.936;2022-10-31T03:24:55;100.10;;;46.90;;
53903;SDS011;39812;52.430;16.936;2022-10-31T03:27:26;95.30;;;46.10;;
53903;SDS011;39812;52.430;16.936;2022-10-31T03:29:56;101.00;;;47.50;;
53903;SDS011;39812;52.430;16.936;2022-10-31T03:32:27;94.43;;;41.67;;
53903;SDS011;39812;52.430;16.936;2022-10-31T03:34:56;87.00;;;43.67;;
53903;SDS011;39812;52.430;16.936;2022-10-31T03:37:25;94.10;;;44.63;;
53903;SDS011;39812;52.430;16.936;2022-10-31T03:39:55;87.07;;;44.13;;
53903;SDS011;39812;52.430;16.936;2022-10-31T03:42:24;88.15;;;46.75;;
53903;SDS011;39812;52.430;16.936;2022-10-31T03:44:55;92.30;;;45.72;;
53903;SDS011;39812;52.430;16.936;2022-10-31T03:47:25;101.70;;;45.25;;
53903;SDS011;39812;52.430;16.936;2022-10-31T03:49:51;88.82;;;43.10;;
53903;SDS011;39812;52.430;16.936;2022-10-31T03:52:19;80.75;;;41.88;;
53903;SDS011;39812;52.430;16.936;2022-10-31T03:55:40;86.03;;;42.22;;
53903;SDS011;39812;52.430;16.936;2022-10-31T03:57:46;68.78;;;37.75;;
53903;SDS011;39812;52.430;16.936;2022-10-31T04:00:32;53.90;;;34.47;;
53903;SDS011;39812;52.430;16.936;2022-10-31T04:03:00;59.13;;;33.75;;
53903;SDS011;39812;52.430;16.936;2022-10-31T04:05:31;64.13;;;33.40;;
53903;SDS011;39812;52.430;16.936;2022-10-31T04:07:57;60.83;;;32.45;;
53903;SDS011;39812;52.430;16.936;2022-10-31T04:10:24;80.07;;;40.40;;
53903;SDS011;39812;52.430;16.936;2022-10-31T04:12:53;77.75;;;38.63;;
53903;SDS011;39812;52.430;16.936;2022-10-31T04:15:25;66.00;;;35.25;;
53903;SDS011;39812;52.430;16.936;2022-10-31T04:17:52;59.63;;;35.47;;
53903;SDS011;39812;52.430;16.936;2022-10-31T04:20:29;48.97;;;28.85;;
53903;SDS011;39812;52.430;16.936;2022-10-31T04:22:59;41.15;;;25.90;;
53903;SDS011;39812;52.430;16.936;2022-10-31T04:25:26;38.17;;;24.75;;
53903;SDS011;39812;52.430;16.936;2022-10-31T04:27:51;44.20;;;26.33;;
53903;SDS011;39812;52.430;16.936;2022-10-31T04:30:16;36.83;;;25.30;;
53903;SDS011;39812;52.430;16.936;2022-10-31T04:32:42;28.85;;;21.15;;
53903;SDS011;39812;52.430;16.936;2022-10-31T04:35:08;39.80;;;24.77;;
53903;SDS011;39812;52.430;16.936;2022-10-31T04:37:33;47.38;;;28.13;;
53903;SDS011;39812;52.430;16.936;2022-10-31T04:39:58;30.70;;;22.02;;
53903;SDS011;39812;52.430;16.936;2022-10-31T04:42:24;33.75;;;22.92;;
53903;SDS011;39812;52.430;16.936;2022-10-31T04:44:49;32.83;;;22.88;;
53903;SDS011;39812;52.430;16.936;2022-10-31T04:47:15;34.08;;;23.20;;
53903;SDS011;39812;52.430;16.936;2022-10-31T04:49:40;37.58;;;24.38;;
53903;SDS011;39812;52.430;16.936;2022-10-31T04:52:06;38.03;;;26.75;;
53903;SDS011;39812;52.430;16.936;2022-10-31T04:54:32;41.13;;;27.58;;
53903;SDS011;39812;52.430;16.936;2022-10-31T04:56:58;41.72;;;28.67;;
53903;SDS011;39812;52.430;16.936;2022-10-31T04:59:23;51.15;;;31.27;;
53903;SDS011;39812;52.430;16.936;2022-10-31T05:01:49;61.45;;;33.05;;
53903;SDS011;39812;52.430;16.936;2022-10-31T05:04:14;67.32;;;31.88;;
53903;SDS011;39812;52.430;16.936;2022-10-31T05:06:40;53.38;;;33.10;;
53903;SDS011;39812;52.430;16.936;2022-10-31T05:09:05;51.85;;;30.52;;
53903;SDS011;39812;52.430;16.936;2022-10-31T05:11:31;46.95;;;29.95;;
53903;SDS011;39812;52.430;16.936;2022-10-31T05:13:56;43.15;;;28.73;;
53903;SDS011;39812;52.430;16.936;2022-10-31T05:16:22;44.22;;;28.08;;
53903;SDS011;39812;52.430;16.936;2022-10-31T05:18:47;47.78;;;28.65;;
53903;SDS011;39812;52.430;16.936;2022-10-31T05:21:12;61.40;;;31.65;;
53903;SDS011;39812;52.430;16.936;2022-10-31T05:23:38;47.05;;;32.03;;
53903;SDS011;39812;52.430;16.936;2022-10-31T05:26:03;54.25;;;30.08;;
53903;SDS011;39812;52.430;16.936;2022-10-31T05:28:29;61.97;;;30.92;;
53903;SDS011;39812;52.430;16.936;2022-10-31T05:30:54;61.13;;;29.33;;
53903;SDS011;39812;52.430;16.936;2022-10-31T05:33:21;59.13;;;28.33;;
53903;SDS011;39812;52.430;16.936;2022-10-31T05:35:47;40.65;;;25.17;;
53903;SDS011;39812;52.430;16.936;2022-10-31T05:38:13;42.05;;;24.98;;
53903;SDS011;39812;52.430;16.936;2022-10-31T05:40:38;39.03;;;24.33;;
53903;SDS011;39812;52.430;16.936;2022-10-31T05:43:03;28.50;;;22.40;;
53903;SDS011;39812;52.430;16.936;2022-10-31T05:45:29;39.38;;;24.00;;
53903;SDS011;39812;52.430;16.936;2022-10-31T05:47:56;37.50;;;24.35;;
53903;SDS011;39812;52.430;16.936;2022-10-31T05:50:23;42.25;;;25.40;;
53903;SDS011;39812;52.430;16.936;2022-10-31T05:52:54;34.85;;;24.67;;
53903;SDS011;39812;52.430;16.936;2022-10-31T05:55:20;35.60;;;25.08;;
53903;SDS011;39812;52.430;16.936;2022-10-31T05:57:46;36.78;;;24.90;;
53903;SDS011;39812;52.430;16.936;2022-10-31T06:00:11;35.45;;;24.15;;
53903;SDS011;39812;52.430;16.936;2022-10-31T06:02:37;52.13;;;30.27;;
53903;SDS011;39812;52.430;16.936;2022-10-31T06:05:03;51.72;;;29.55;;
53903;SDS011;39812;52.430;16.936;2022-10-31T06:07:32;43.65;;;28.58;;
53903;SDS011;39812;52.430;16.936;2022-10-31T06:09:59;36.78;;;25.30;;
53903;SDS011;39812;52.430;16.936;2022-10-31T06:12:24;35.70;;;24.92;;
53903;SDS011;39812;52.430;16.936;2022-10-31T06:14:50;38.65;;;24.90;;
53903;SDS011;39812;52.430;16.936;2022-10-31T06:17:15;55.05;;;28.45;;
53903;SDS011;39812;52.430;16.936;2022-10-31T06:19:40;70.28;;;36.42;;
53903;SDS011;39812;52.430;16.936;2022-10-31T06:22:06;95.80;;;40.67;;
53903;SDS011;39812;52.430;16.936;2022-10-31T06:24:31;72.35;;;37.85;;
53903;SDS011;39812;52.430;16.936;2022-10-31T06:26:57;60.25;;;32.65;;
53903;SDS011;39812;52.430;16.936;2022-10-31T06:29:22;64.38;;;36.55;;
53903;SDS011;39812;52.430;16.936;2022-10-31T06:31:50;68.03;;;37.78;;
53903;SDS011;39812;52.430;16.936;2022-10-31T06:34:16;74.32;;;36.70;;
53903;SDS011;39812;52.430;16.936;2022-10-31T06:36:42;69.65;;;36.35;;
53903;SDS011;39812;52.430;16.936;2022-10-31T06:39:07;67.47;;;36.00;;
53903;SDS011;39812;52.430;16.936;2022-10-31T06:41:33;68.25;;;37.38;;
53903;SDS011;39812;52.430;16.936;2022-10-31T06:43:58;77.50;;;39.80;;
53903;SDS011;39812;52.430;16.936;2022-10-31T06:46:24;70.57;;;35.75;;
53903;SDS011;39812;52.430;16.936;2022-10-31T06:48:49;70.20;;;36.45;;
53903;SDS011;39812;52.430;16.936;2022-10-31T06:51:14;61.67;;;34.90;;
53903;SDS011;39812;52.430;16.936;2022-10-31T06:53:40;46.67;;;27.75;;
53903;SDS011;39812;52.430;16.936;2022-10-31T06:56:05;40.22;;;25.10;;
53903;SDS011;39812;52.430;16.936;2022-10-31T06:58:31;41.97;;;27.08;;
53903;SDS011;39812;52.430;16.936;2022-10-31T07:00:58;38.72;;;25.98;;
53903;SDS011;39812;52.430;16.936;2022-10-31T07:03:25;38.72;;;25.20;;
53903;SDS011;39812;52.430;16.936;2022-10-31T07:05:50;43.42;;;27.52;;
53903;SDS011;39812;52.430;16.936;2022-10-31T07:08:16;50.60;;;28.73;;
53903;SDS011;39812;52.430;16.936;2022-10-31T07:10:41;64.32;;;32.70;;
53903;SDS011;39812;52.430;16.936;2022-10-31T07:13:12;75.78;;;36.67;;
53903;SDS011;39812;52.430;16.936;2022-10-31T07:15:39;81.43;;;39.78;;
53903;SDS011;39812;52.430;16.936;2022-10-31T07:18:07;73.47;;;39.00;;
53903;SDS011;39812;52.430;16.936;2022-10-31T07:20:34;84.07;;;37.05;;
53903;SDS011;39812;52.430;16.936;2022-10-31T07:22:59;75.22;;;37.00;;
53903;SDS011;39812;52.430;16.936;2022-10-31T07:25:25;76.38;;;38.25;;
53903;SDS011;39812;52.430;16.936;2022-10-31T07:27:51;77.47;;;38.03;;
53903;SDS011;39812;52.430;16.936;2022-10-31T07:30:16;68.40;;;34.58;;
53903;SDS011;39812;52.430;16.936;2022-10-31T07:32:43;64.10;;;32.97;;
53903;SDS011;39812;52.430;16.936;2022-10-31T07:35:12;69.10;;;36.30;;
53903;SDS011;39812;52.430;16.936;2022-10-31T07:37:38;83.20;;;38.38;;
53903;SDS011;39812;52.430;16.936;2022-10-31T07:40:04;102.10;;;40.90;;
53903;SDS011;39812;52.430;16.936;2022-10-31T07:42:37;114.15;;;41.30;;
53903;SDS011;39812;52.430;16.936;2022-10-31T07:45:04;91.30;;;42.67;;
53903;SDS011;39812;52.430;16.936;2022-10-31T07:47:41;89.00;;;40.83;;
53903;SDS011;39812;52.430;16.936;2022-10-31T07:50:11;101.65;;;43.10;;
53903;SDS011;39812;52.430;16.936;2022-10-31T07:52:37;87.13;;;44.70;;
53903;SDS011;39812;52.430;16.936;2022-10-31T07:55:03;100.32;;;46.00;;
53903;SDS011;39812;52.430;16.936;2022-10-31T07:57:29;94.85;;;44.75;;
53903;SDS011;39812;52.430;16.936;2022-10-31T07:59:55;107.07;;;48.30;;
53903;SDS011;39812;52.430;16.936;2022-10-31T08:02:20;92.45;;;44.28;;
53903;SDS011;39812;52.430;16.936;2022-10-31T08:04:46;96.10;;;43.70;;
53903;SDS011;39812;52.430;16.936;2022-10-31T08:07:11;102.63;;;46.00;;
53903;SDS011;39812;52.430;16.936;2022-10-31T08:09:37;105.78;;;46.67;;
53903;SDS011;39812;52.430;16.936;2022-10-31T08:12:02;92.00;;;43.97;;
53903;SDS011;39812;52.430;16.936;2022-10-31T08:14:28;88.72;;;42.00;;
53903;SDS011;39812;52.430;16.936;2022-10-31T08:16:54;98.80;;;42.90;;
53903;SDS011;39812;52.430;16.936;2022-10-31T08:19:19;95.53;;;42.92;;
53903;SDS011;39812;52.430;16.936;2022-10-31T08:21:45;90.20;;;41.28;;
53903;SDS011;39812;52.430;16.936;2022-10-31T08:24:10;77.22;;;39.88;;
53903;SDS011;39812;52.430;16.936;2022-10-31T08:26:36;80.18;;;38.28;;
53903;SDS011;39812;52.430;16.936;2022-10-31T08:29:01;79.88;;;39.80;;
53903;SDS011;39812;52.430;16.936;2022-10-31T08:31:27;67.90;;;37.55;;
53903;SDS011;39812;52.430;16.936;2022-10-31T08:33:53;74.97;;;36.40;;
53903;SDS011;39812;52.430;16.936;2022-10-31T08:36:19;70.30;;;36.53;;
53903;SDS011;39812;52.430;16.936;2022-10-31T08:38:48;65.35;;;34.80;;
53903;SDS011;39812;52.430;16.936;2022-10-31T08:41:14;67.97;;;35.97;;
53903;SDS011;39812;52.430;16.936;2022-10-31T08:43:39;73.00;;;36.53;;
53903;SDS011;39812;52.430;16.936;2022-10-31T08:46:05;63.95;;;34.30;;
53903;SDS011;39812;52.430;16.936;2022-10-31T08:48:31;55.92;;;31.85;;
53903;SDS011;39812;52.430;16.936;2022-10-31T08:50:57;60.50;;;31.30;;
53903;SDS011;39812;52.430;16.936;2022-10-31T08:53:23;69.47;;;32.40;;
53903;SDS011;39812;52.430;16.936;2022-10-31T08:55:49;54.85;;;30.75;;
53903;SDS011;39812;52.430;16.936;2022-10-31T08:58:16;68.65;;;33.38;;
53903;SDS011;39812;52.430;16.936;2022-10-31T09:00:43;80.53;;;35.08;;
53903;SDS011;39812;52.430;16.936;2022-10-31T09:03:10;78.40;;;35.40;;
53903;SDS011;39812;52.430;16.936;2022-10-31T09:05:38;68.35;;;35.35;;
53903;SDS011;39812;52.430;16.936;2022-10-31T09:08:04;73.82;;;36.25;;
53903;SDS011;39812;52.430;16.936;2022-10-31T09:10:31;84.95;;;37.10;;
53903;SDS011;39812;52.430;16.936;2022-10-31T09:12:58;89.05;;;40.83;;
53903;SDS011;39812;52.430;16.936;2022-10-31T09:15:36;83.40;;;40.63;;
53903;SDS011;39812;52.430;16.936;2022-10-31T09:18:03;78.75;;;40.78;;
53903;SDS011;39812;52.430;16.936;2022-10-31T09:20:32;84.18;;;39.78;;
53903;SDS011;39812;52.430;16.936;2022-10-31T09:23:00;80.80;;;40.42;;
53903;SDS011;39812;52.430;16.936;2022-10-31T09:25:30;80.63;;;36.33;;
53903;SDS011;39812;52.430;16.936;2022-10-31T09:27:57;71.75;;;35.50;;
53903;SDS011;39812;52.430;16.936;2022-10-31T09:30:24;67.65;;;36.60;;
53903;SDS011;39812;52.430;16.936;2022-10-31T09:32:57;68.28;;;35.90;;
53903;SDS011;39812;52.430;16.936;2022-10-31T09:35:25;57.75;;;33.08;;
53903;SDS011;39812;52.430;16.936;2022-10-31T09:37:57;61.50;;;32.58;;
53903;SDS011;39812;52.430;16.936;2022-10-31T09:40:32;73.75;;;33.65;;
53903;SDS011;39812;52.430;16.936;2022-10-31T09:45:40;62.45;;;31.92;;
53903;SDS011;39812;52.430;16.936;2022-10-31T09:48:09;57.85;;;29.45;;
53903;SDS011;39812;52.430;16.936;2022-10-31T09:50:58;56.53;;;30.05;;
53903;SDS011;39812;52.430;16.936;2022-10-31T09:53:54;44.65;;;26.83;;
53903;SDS011;39812;52.430;16.936;2022-10-31T09:56:25;50.35;;;27.75;;
53903;SDS011;39812;52.430;16.936;2022-10-31T09:58:56;48.92;;;27.55;;
53903;SDS011;39812;52.430;16.936;2022-10-31T10:01:28;45.88;;;26.85;;
53903;SDS011;39812;52.430;16.936;2022-10-31T10:04:01;44.53;;;28.17;;
53903;SDS011;39812;52.430;16.936;2022-10-31T10:06:35;51.22;;;29.73;;
53903;SDS011;39812;52.430;16.936;2022-10-31T10:09:09;47.63;;;27.27;;
53903;SDS011;39812;52.430;16.936;2022-10-31T10:16:57;40.08;;;25.10;;
53903;SDS011;39812;52.430;16.936;2022-10-31T10:22:38;40.63;;;24.92;;
53903;SDS011;39812;52.430;16.936;2022-10-31T10:25:20;43.50;;;24.52;;
53903;SDS011;39812;52.430;16.936;2022-10-31T10:27:50;42.53;;;25.65;;
53903;SDS011;39812;52.430;16.936;2022-10-31T10:30:40;44.85;;;25.38;;
53903;SDS011;39812;52.430;16.936;2022-10-31T10:33:10;42.33;;;24.83;;
53903;SDS011;39812;52.430;16.936;2022-10-31T10:35:41;39.92;;;25.40;;
53903;SDS011;39812;52.430;16.936;2022-10-31T10:38:15;43.08;;;23.45;;
53903;SDS011;39812;52.430;16.936;2022-10-31T10:40:47;37.25;;;23.67;;
53903;SDS011;39812;52.430;16.936;2022-10-31T10:43:20;41.35;;;24.30;;
53903;SDS011;39812;52.430;16.936;2022-10-31T10:45:49;39.85;;;24.27;;
53903;SDS011;39812;52.430;16.936;2022-10-31T10:48:40;36.42;;;21.77;;
53903;SDS011;39812;52.430;16.936;2022-10-31T10:51:23;33.78;;;20.10;;
53903;SDS011;39812;52.430;16.936;2022-10-31T10:54:15;34.70;;;20.65;;
53903;SDS011;39812;52.430;16.936;2022-10-31T10:57:03;34.78;;;19.55;;
53903;SDS011;39812;52.430;16.936;2022-10-31T10:59:44;30.83;;;19.42;;
53903;SDS011;39812;52.430;16.936;2022-10-31T11:02:17;33.08;;;18.67;;
53903;SDS011;39812;52.430;16.936;2022-10-31T11:04:47;32.45;;;18.73;;
53903;SDS011;39812;52.430;16.936;2022-10-31T11:07:15;29.00;;;17.38;;
53903;SDS011;39812;52.430;16.936;2022-10-31T11:09:41;40.33;;;18.63;;
53903;SDS011;39812;52.430;16.936;2022-10-31T11:12:08;29.30;;;16.33;;
53903;SDS011;39812;52.430;16.936;2022-10-31T11:14:41;40.92;;;18.17;;
53903;SDS011;39812;52.430;16.936;2022-10-31T11:22:39;27.40;;;15.38;;
53903;SDS011;39812;52.430;16.936;2022-10-31T11:27:46;23.10;;;14.57;;
53903;SDS011;39812;52.430;16.936;2022-10-31T11:30:22;27.35;;;14.77;;
53903;SDS011;39812;52.430;16.936;2022-10-31T11:32:49;22.23;;;13.43;;
53903;SDS011;39812;52.430;16.936;2022-10-31T11:35:19;25.50;;;13.65;;
53903;SDS011;39812;52.430;16.936;2022-10-31T11:37:49;24.50;;;13.80;;
53903;SDS011;39812;52.430;16.936;2022-10-31T11:40:17;29.33;;;14.70;;
53903;SDS011;39812;52.430;16.936;2022-10-31T11:42:45;21.75;;;14.60;;
53903;SDS011;39812;52.430;16.936;2022-10-31T11:45:16;23.98;;;14.77;;
53903;SDS011;39812;52.430;16.936;2022-10-31T11:47:46;20.25;;;12.10;;
53903;SDS011;39812;52.430;16.936;2022-10-31T11:50:32;16.00;;;10.05;;
53903;SDS011;39812;52.430;16.936;2022-10-31T11:53:01;71.00;;;16.08;;
53903;SDS011;39812;52.430;16.936;2022-10-31T11:55:33;25.63;;;10.73;;
53903;SDS011;39812;52.430;16.936;2022-10-31T11:58:00;17.77;;;9.68;;
53903;SDS011;39812;52.430;16.936;2022-10-31T12:00:28;16.75;;;10.20;;
53903;SDS011;39812;52.430;16.936;2022-10-31T12:05:51;19.20;;;9.60;;
53903;SDS011;39812;52.430;16.936;2022-10-31T12:08:23;19.45;;;9.57;;
53903;SDS011;39812;52.430;16.936;2022-10-31T12:11:06;30.55;;;9.82;;
53903;SDS011;39812;52.430;16.936;2022-10-31T12:16:53;17.75;;;8.73;;
53903;SDS011;39812;52.430;16.936;2022-10-31T12:19:43;24.33;;;9.40;;
53903;SDS011;39812;52.430;16.936;2022-10-31T12:35:51;19.90;;;8.45;;
53903;SDS011;39812;52.430;16.936;2022-10-31T12:38:25;22.00;;;8.52;;
53903;SDS011;39812;52.430;16.936;2022-10-31T12:43:46;17.90;;;8.80;;
53903;SDS011;39812;52.430;16.936;2022-10-31T12:46:47;14.20;;;8.20;;
53903;SDS011;39812;52.430;16.936;2022-10-31T12:52:30;17.33;;;9.23;;
53903;SDS011;39812;52.430;16.936;2022-10-31T12:55:28;24.92;;;9.88;;
53903;SDS011;39812;52.430;16.936;2022-10-31T12:58:36;18.27;;;9.02;;
53903;SDS011;39812;52.430;16.936;2022-10-31T13:00:48;11.15;;;8.43;;
53903;SDS011;39812;52.430;16.936;2022-10-31T13:03:28;17.60;;;8.90;;
53903;SDS011;39812;52.430;16.936;2022-10-31T13:06:05;17.58;;;9.38;;
53903;SDS011;39812;52.430;16.936;2022-10-31T13:08:39;14.02;;;8.65;;
53903;SDS011;39812;52.430;16.936;2022-10-31T13:11:25;26.83;;;10.23;;
53903;SDS011;39812;52.430;16.936;2022-10-31T13:14:00;15.40;;;8.85;;
53903;SDS011;39812;52.430;16.936;2022-10-31T13:16:35;18.52;;;8.73;;
53903;SDS011;39812;52.430;16.936;2022-10-31T13:19:07;15.68;;;7.72;;
53903;SDS011;39812;52.430;16.936;2022-10-31T13:22:06;17.70;;;8.98;;
53903;SDS011;39812;52.430;16.936;2022-10-31T13:24:36;17.23;;;8.80;;
53903;SDS011;39812;52.430;16.936;2022-10-31T13:27:18;16.80;;;8.68;;
53903;SDS011;39812;52.430;16.936;2022-10-31T13:29:58;17.10;;;8.85;;
53903;SDS011;39812;52.430;16.936;2022-10-31T13:35:36;16.60;;;8.73;;
53903;SDS011;39812;52.430;16.936;2022-10-31T13:38:10;17.58;;;9.07;;
53903;SDS011;39812;52.430;16.936;2022-10-31T13:40:59;17.23;;;8.98;;
53903;SDS011;39812;52.430;16.936;2022-10-31T13:46:39;15.32;;;8.48;;
53903;SDS011;39812;52.430;16.936;2022-10-31T13:49:23;12.35;;;8.02;;
53903;SDS011;39812;52.430;16.936;2022-10-31T13:57:01;17.40;;;9.32;;
53903;SDS011;39812;52.430;16.936;2022-10-31T13:59:31;18.75;;;9.60;;
53903;SDS011;39812;52.430;16.936;2022-10-31T14:02:01;21.50;;;9.65;;
53903;SDS011;39812;52.430;16.936;2022-10-31T14:04:38;18.48;;;9.95;;
53903;SDS011;39812;52.430;16.936;2022-10-31T14:07:11;17.15;;;9.07;;
53903;SDS011;39812;52.430;16.936;2022-10-31T14:17:54;24.23;;;9.48;;
53903;SDS011;39812;52.430;16.936;2022-10-31T14:20:23;20.40;;;9.60;;
53903;SDS011;39812;52.430;16.936;2022-10-31T14:22:49;21.85;;;9.45;;
53903;SDS011;39812;52.430;16.936;2022-10-31T14:25:36;15.00;;;9.15;;
53903;SDS011;39812;52.430;16.936;2022-10-31T14:28:03;14.73;;;8.93;;
53903;SDS011;39812;52.430;16.936;2022-10-31T14:30:57;22.63;;;9.88;;
53903;SDS011;39812;52.430;16.936;2022-10-31T14:33:27;17.50;;;9.45;;
53903;SDS011;39812;52.430;16.936;2022-10-31T14:35:56;17.42;;;9.73;;
53903;SDS011;39812;52.430;16.936;2022-10-31T14:38:35;41.67;;;11.90;;
53903;SDS011;39812;52.430;16.936;2022-10-31T14:41:21;92.20;;;17.02;;
53903;SDS011;39812;52.430;16.936;2022-10-31T14:47:14;23.90;;;13.15;;
53903;SDS011;39812;52.430;16.936;2022-10-31T14:49:59;26.42;;;13.23;;
53903;SDS011;39812;52.430;16.936;2022-10-31T14:52:28;27.08;;;13.98;;
53903;SDS011;39812;52.430;16.936;2022-10-31T14:54:54;23.63;;;13.52;;
53903;SDS011;39812;52.430;16.936;2022-10-31T14:57:23;18.70;;;12.45;;
53903;SDS011;39812;52.430;16.936;2022-10-31T14:59:52;23.70;;;13.25;;
53903;SDS011;39812;52.430;16.936;2022-10-31T15:02:32;25.52;;;13.52;;
53903;SDS011;39812;52.430;16.936;2022-10-31T15:05:16;24.75;;;14.18;;
53903;SDS011;39812;52.430;16.936;2022-10-31T15:07:50;22.95;;;13.43;;
53903;SDS011;39812;52.430;16.936;2022-10-31T15:12:47;27.48;;;13.45;;
53903;SDS011;39812;52.430;16.936;2022-10-31T15:15:14;29.92;;;15.43;;
53903;SDS011;39812;52.430;16.936;2022-10-31T15:17:44;27.25;;;16.65;;
53903;SDS011;39812;52.430;16.936;2022-10-31T15:20:18;33.42;;;16.70;;
53903;SDS011;39812;52.430;16.936;2022-10-31T15:22:49;31.17;;;17.13;;
53903;SDS011;39812;52.430;16.936;2022-10-31T15:25:19;29.77;;;17.85;;
53903;SDS011;39812;52.430;16.936;2022-10-31T15:27:47;31.55;;;17.80;;
53903;SDS011;39812;52.430;16.936;2022-10-31T15:30:20;36.03;;;19.27;;
53903;SDS011;39812;52.430;16.936;2022-10-31T15:32:50;32.90;;;19.83;;
53903;SDS011;39812;52.430;16.936;2022-10-31T15:37:53;38.97;;;19.50;;
53903;SDS011;39812;52.430;16.936;2022-10-31T15:40:20;39.22;;;19.67;;
53903;SDS011;39812;52.430;16.936;2022-10-31T15:42:50;37.40;;;19.77;;
53903;SDS011;39812;52.430;16.936;2022-10-31T15:45:29;38.35;;;20.90;;
53903;SDS011;39812;52.430;16.936;2022-10-31T15:47:56;37.55;;;19.90;;
53903;SDS011;39812;52.430;16.936;2022-10-31T15:50:28;39.10;;;21.77;;
53903;SDS011;39812;52.430;16.936;2022-10-31T15:53:16;38.63;;;21.58;;
53903;SDS011;39812;52.430;16.936;2022-10-31T15:55:45;49.83;;;23.65;;
53903;SDS011;39812;52.430;16.936;2022-10-31T15:58:23;43.60;;;22.10;;
53903;SDS011;39812;52.430;16.936;2022-10-31T16:00:57;41.50;;;23.52;;